createdAt,value
2023-09-23T00:00:16.826Z,1002.88
2023-09-23T00:01:16.845Z,1002.88
2023-09-23T00:02:16.942Z,1002.91
2023-09-23T00:03:16.877Z,1002.92
2023-09-23T00:04:16.896Z,1002.99
2023-09-23T00:05:16.922Z,1003.00
2023-09-23T00:06:16.830Z,1003.02
2023-09-23T00:07:16.837Z,1003.03
2023-09-23T00:08:16.863Z,1003.05
2023-09-23T00:09:16.835Z,1003.02
2023-09-23T00:10:16.823Z,1003.02
2023-09-23T00:11:16.872Z,1003.03
2023-09-23T00:12:17.146Z,1003.02
2023-09-23T00:13:16.848Z,1003.07
2023-09-23T00:14:16.888Z,1003.05
2023-09-23T00:15:16.829Z,1003.10
2023-09-23T00:16:17.410Z,1003.13
2023-09-23T00:17:16.892Z,1003.16
2023-09-23T00:18:16.822Z,1003.20
2023-09-23T00:19:16.831Z,1003.20
2023-09-23T00:20:16.947Z,1003.23
2023-09-23T00:21:16.821Z,1003.21
2023-09-23T00:22:16.813Z,1003.22
2023-09-23T00:23:16.870Z,1003.20
2023-09-23T00:24:16.818Z,1003.19
2023-09-23T00:25:16.829Z,1003.20
2023-09-23T00:26:16.874Z,1003.16
2023-09-23T00:27:16.820Z,1003.12
2023-09-23T00:28:16.816Z,1003.12
2023-09-23T00:29:16.906Z,1003.20
2023-09-23T00:30:16.843Z,1003.13
2023-09-23T00:31:16.831Z,1003.21
2023-09-23T00:32:16.844Z,1003.17
2023-09-23T00:33:16.820Z,1003.22
2023-09-23T00:34:17.159Z,1003.24
2023-09-23T00:35:16.868Z,1003.25
2023-09-23T00:36:16.810Z,1003.24
2023-09-23T00:37:16.812Z,1003.23
2023-09-23T00:38:16.855Z,1003.24
2023-09-23T00:39:16.813Z,1003.24
2023-09-23T00:40:16.820Z,1003.25
2023-09-23T00:41:16.853Z,1003.27
2023-09-23T00:42:16.829Z,1003.35
2023-09-23T00:43:16.812Z,1003.34
2023-09-23T00:44:16.830Z,1003.37
2023-09-23T00:45:16.837Z,1003.31
2023-09-23T00:46:16.836Z,1003.30
2023-09-23T00:47:16.868Z,1003.28
2023-09-23T00:48:16.810Z,1003.26
2023-09-23T00:49:16.808Z,1003.23
2023-09-23T00:50:16.852Z,1003.20
2023-09-23T00:51:16.810Z,1003.22
2023-09-23T00:52:16.852Z,1003.17
2023-09-23T00:53:16.828Z,1003.16
2023-09-23T00:54:16.804Z,1003.12
2023-09-23T00:55:16.813Z,1003.08
2023-09-23T00:56:16.843Z,1003.07
2023-09-23T00:57:16.805Z,1003.07
2023-09-23T00:58:16.807Z,1003.02
2023-09-23T00:59:16.841Z,1003.04
2023-09-23T01:00:16.801Z,1003.01
2023-09-23T01:01:16.870Z,1002.99
2023-09-23T01:02:16.951Z,1003.00
2023-09-23T01:03:16.965Z,1002.97
2023-09-23T01:04:16.892Z,1002.94
2023-09-23T01:05:16.828Z,1002.99
2023-09-23T01:06:16.803Z,1002.96
2023-09-23T01:07:16.822Z,1002.95
2023-09-23T01:08:16.845Z,1002.93
2023-09-23T01:09:16.804Z,1002.96
2023-09-23T01:10:16.800Z,1002.92
2023-09-23T01:11:16.846Z,1002.96
2023-09-23T01:12:16.806Z,1002.94
2023-09-23T01:13:16.803Z,1002.96
2023-09-23T01:14:16.827Z,1002.92
2023-09-23T01:15:16.803Z,1002.95
2023-09-23T01:16:16.834Z,1002.95
2023-09-23T01:17:16.904Z,1002.94
2023-09-23T01:18:16.805Z,1002.98
2023-09-23T01:19:16.802Z,1002.97
2023-09-23T01:20:16.857Z,1002.95
2023-09-23T01:21:16.800Z,1002.94
2023-09-23T01:22:16.799Z,1002.98
2023-09-23T01:23:16.834Z,1002.97
2023-09-23T01:24:16.803Z,1002.98
2023-09-23T01:25:16.800Z,1003.00
2023-09-23T01:26:16.826Z,1003.00
2023-09-23T01:27:16.801Z,1002.98
2023-09-23T01:28:17.099Z,1002.97
2023-09-23T01:29:16.871Z,1002.96
2023-09-23T01:30:16.799Z,1003.01
2023-09-23T01:31:16.841Z,1003.06
2023-09-23T01:32:16.824Z,1003.06
2023-09-23T01:33:17.131Z,1003.11
2023-09-23T01:34:16.793Z,1003.13
2023-09-23T01:35:16.847Z,1003.13
2023-09-23T01:36:16.792Z,1003.19
2023-09-23T01:37:16.796Z,1003.12
2023-09-23T01:38:17.032Z,1003.19
2023-09-23T01:39:16.796Z,1003.22
2023-09-23T01:40:16.792Z,1003.22
2023-09-23T01:41:17.139Z,1003.27
2023-09-23T01:42:16.787Z,1003.26
2023-09-23T01:43:16.804Z,1003.25
2023-09-23T01:44:16.822Z,1003.25
2023-09-23T01:45:16.796Z,1003.23
2023-09-23T01:46:16.816Z,1003.24
2023-09-23T01:47:16.880Z,1003.26
2023-09-23T01:48:16.825Z,1003.27
2023-09-23T01:49:16.815Z,1003.21
2023-09-23T01:50:16.821Z,1003.20
2023-09-23T01:51:16.788Z,1003.19
2023-09-23T01:52:16.785Z,1003.21
2023-09-23T01:53:16.846Z,1003.17
2023-09-23T01:54:16.786Z,1003.17
2023-09-23T01:55:16.790Z,1003.18
2023-09-23T01:56:16.832Z,1003.18
2023-09-23T01:57:16.781Z,1003.15
2023-09-23T01:58:16.781Z,1003.17
2023-09-23T01:59:16.810Z,1003.16
2023-09-23T02:00:16.784Z,1003.15
2023-09-23T02:01:16.810Z,1003.15
2023-09-23T02:02:16.958Z,1003.16
2023-09-23T02:03:16.866Z,1003.13
2023-09-23T02:04:16.780Z,1003.15
2023-09-23T02:05:16.860Z,1003.17
2023-09-23T02:06:16.778Z,1003.17
2023-09-23T02:07:16.786Z,1003.19
2023-09-23T02:08:16.831Z,1003.24
2023-09-23T02:09:16.780Z,1003.21
2023-09-23T02:10:16.802Z,1003.30
2023-09-23T02:11:16.834Z,1003.28
2023-09-23T02:12:16.786Z,1003.32
2023-09-23T02:13:16.781Z,1003.30
2023-09-23T02:14:16.788Z,1003.30
2023-09-23T02:15:16.797Z,1003.30
2023-09-23T02:16:16.810Z,1003.32
2023-09-23T02:17:16.930Z,1003.30
2023-09-23T02:18:16.803Z,1003.30
2023-09-23T02:19:16.781Z,1003.34
2023-09-23T02:20:16.864Z,1003.35
2023-09-23T02:21:16.810Z,1003.37
2023-09-23T02:22:16.790Z,1003.35
2023-09-23T02:23:18.800Z,1003.32
2023-09-23T02:24:16.780Z,1003.33
2023-09-23T02:25:16.782Z,1003.35
2023-09-23T02:26:16.804Z,1003.37
2023-09-23T02:27:16.803Z,1003.41
2023-09-23T02:28:16.772Z,1003.35
2023-09-23T02:29:16.835Z,1003.39
2023-09-23T02:30:16.775Z,1003.36
2023-09-23T02:31:16.797Z,1003.38
2023-09-23T02:32:16.803Z,1003.39
2023-09-23T02:33:16.778Z,1003.45
2023-09-23T02:34:16.775Z,1003.48
2023-09-23T02:35:16.967Z,1003.48
2023-09-23T02:36:16.779Z,1003.51
2023-09-23T02:37:16.800Z,1003.55
2023-09-23T02:38:16.779Z,1003.54
2023-09-23T02:39:16.787Z,1003.55
2023-09-23T02:40:16.785Z,1003.56
2023-09-23T02:41:16.809Z,1003.57
2023-09-23T02:42:16.768Z,1003.52
2023-09-23T02:43:16.776Z,1003.52
2023-09-23T02:44:16.797Z,1003.54
2023-09-23T02:45:16.768Z,1003.45
2023-09-23T02:46:16.800Z,1003.49
2023-09-23T02:47:16.784Z,1003.51
2023-09-23T02:48:16.807Z,1003.52
2023-09-23T02:49:16.785Z,1003.51
2023-09-23T02:50:16.858Z,1003.53
2023-09-23T02:51:16.769Z,1003.53
2023-09-23T02:52:16.767Z,1003.54
2023-09-23T02:53:16.867Z,1003.53
2023-09-23T02:54:16.789Z,1003.54
2023-09-23T02:55:17.309Z,1003.58
2023-09-23T02:56:16.795Z,1003.62
2023-09-23T02:57:16.767Z,1003.66
2023-09-23T02:58:16.764Z,1003.66
2023-09-23T02:59:17.022Z,1003.70
2023-09-23T03:00:16.777Z,1003.68
2023-09-23T03:01:16.797Z,1003.74
2023-09-23T03:02:16.810Z,1003.78
2023-09-23T03:03:16.855Z,1003.83
2023-09-23T03:04:16.768Z,1003.85
2023-09-23T03:05:16.909Z,1003.85
2023-09-23T03:06:16.758Z,1003.86
2023-09-23T03:07:16.761Z,1003.90
2023-09-23T03:08:16.764Z,1003.92
2023-09-23T03:09:16.789Z,1003.93
2023-09-23T03:10:16.765Z,1003.94
2023-09-23T03:11:16.782Z,1004.01
2023-09-23T03:12:16.768Z,1004.00
2023-09-23T03:13:16.756Z,1004.03
2023-09-23T03:14:16.774Z,1004.05
2023-09-23T03:15:16.762Z,1004.03
2023-09-23T03:16:16.781Z,1004.07
2023-09-23T03:17:16.780Z,1004.05
2023-09-23T03:18:17.195Z,1004.02
2023-09-23T03:19:16.763Z,1004.04
2023-09-23T03:20:16.776Z,1004.01
2023-09-23T03:21:16.751Z,1004.04
2023-09-23T03:22:16.745Z,1004.01
2023-09-23T03:23:16.784Z,1003.98
2023-09-23T03:24:16.754Z,1004.03
2023-09-23T03:25:16.766Z,1004.01
2023-09-23T03:26:16.782Z,1004.01
2023-09-23T03:27:16.739Z,1004.04
2023-09-23T03:28:16.739Z,1004.05
2023-09-23T03:29:16.762Z,1004.11
2023-09-23T03:30:16.737Z,1004.10
2023-09-23T03:31:16.731Z,1004.11
2023-09-23T03:32:16.790Z,1004.11
2023-09-23T03:33:16.775Z,1004.10
2023-09-23T03:34:16.737Z,1004.15
2023-09-23T03:35:16.757Z,1004.06
2023-09-23T03:36:16.745Z,1004.06
2023-09-23T03:37:16.722Z,1004.02
2023-09-23T03:38:16.849Z,1004.10
2023-09-23T03:39:16.727Z,1004.03
2023-09-23T03:40:16.776Z,1004.04
2023-09-23T03:41:16.839Z,1004.04
2023-09-23T03:42:16.723Z,1004.00
2023-09-23T03:43:16.721Z,1004.02
2023-09-23T03:44:16.761Z,1004.02
2023-09-23T03:45:16.715Z,1004.00
2023-09-23T03:46:16.737Z,1003.98
2023-09-23T03:47:16.777Z,1004.04
2023-09-23T03:48:16.783Z,1004.01
2023-09-23T03:49:16.711Z,1004.01
2023-09-23T03:50:16.743Z,1004.02
2023-09-23T03:51:16.756Z,1004.04
2023-09-23T03:52:16.732Z,1004.02
2023-09-23T03:53:16.769Z,1004.01
2023-09-23T03:54:16.717Z,1004.00
2023-09-23T03:55:16.713Z,1004.02
2023-09-23T03:56:16.810Z,1004.04
2023-09-23T03:57:16.746Z,1004.12
2023-09-23T03:58:16.715Z,1004.12
2023-09-23T03:59:16.784Z,1004.16
2023-09-23T04:00:16.711Z,1004.17
2023-09-23T04:01:16.774Z,1004.19
2023-09-23T04:02:16.768Z,1004.19
2023-09-23T04:03:16.734Z,1004.26
2023-09-23T04:04:16.713Z,1004.29
2023-09-23T04:05:16.782Z,1004.31
2023-09-23T04:06:16.725Z,1004.34
2023-09-23T04:07:16.710Z,1004.33
2023-09-23T04:08:16.740Z,1004.34
2023-09-23T04:09:16.704Z,1004.35
2023-09-23T04:10:16.708Z,1004.33
2023-09-23T04:11:16.798Z,1004.37
2023-09-23T04:12:16.777Z,1004.37
2023-09-23T04:13:16.736Z,1004.42
2023-09-23T04:14:16.739Z,1004.39
2023-09-23T04:15:16.700Z,1004.44
2023-09-23T04:16:16.744Z,1004.40
2023-09-23T04:17:16.743Z,1004.43
2023-09-23T04:18:16.708Z,1004.43
2023-09-23T04:19:16.695Z,1004.43
2023-09-23T04:20:16.786Z,1004.42
2023-09-23T04:21:16.696Z,1004.45
2023-09-23T04:22:16.696Z,1004.46
2023-09-23T04:23:16.781Z,1004.46
2023-09-23T04:24:16.698Z,1004.51
2023-09-23T04:25:16.696Z,1004.51
2023-09-23T04:26:16.764Z,1004.51
2023-09-23T04:27:16.694Z,1004.49
2023-09-23T04:28:16.697Z,1004.49
2023-09-23T04:29:16.729Z,1004.51
2023-09-23T04:30:16.705Z,1004.52
2023-09-23T04:31:16.689Z,1004.53
2023-09-23T04:32:16.762Z,1004.59
2023-09-23T04:33:16.787Z,1004.57
2023-09-23T04:34:16.696Z,1004.60
2023-09-23T04:35:16.753Z,1004.66
2023-09-23T04:36:16.691Z,1004.69
2023-09-23T04:37:16.687Z,1004.72
2023-09-23T04:38:16.746Z,1004.72
2023-09-23T04:39:16.685Z,1004.73
2023-09-23T04:40:16.748Z,1004.74
2023-09-23T04:41:16.768Z,1004.78
2023-09-23T04:42:16.684Z,1004.79
2023-09-23T04:43:16.682Z,1004.79
2023-09-23T04:44:16.718Z,1004.79
2023-09-23T04:45:16.702Z,1004.82
2023-09-23T04:46:16.694Z,1004.80
2023-09-23T04:47:16.708Z,1004.86
2023-09-23T04:48:16.719Z,1004.89
2023-09-23T04:49:16.680Z,1004.86
2023-09-23T04:50:16.704Z,1004.85
2023-09-23T04:51:16.674Z,1004.84
2023-09-23T04:52:16.748Z,1004.82
2023-09-23T04:53:16.688Z,1004.82
2023-09-23T04:54:16.677Z,1004.82
2023-09-23T04:55:16.681Z,1004.84
2023-09-23T04:56:16.711Z,1004.85
2023-09-23T04:57:16.671Z,1004.89
2023-09-23T04:58:16.680Z,1004.86
2023-09-23T04:59:16.719Z,1004.89
2023-09-23T05:00:16.676Z,1004.89
2023-09-23T05:01:16.687Z,1004.91
2023-09-23T05:02:16.734Z,1005.00
2023-09-23T05:03:16.698Z,1004.98
2023-09-23T05:04:16.713Z,1004.99
2023-09-23T05:05:16.783Z,1005.02
2023-09-23T05:06:16.682Z,1005.06
2023-09-23T05:07:16.670Z,1005.07
2023-09-23T05:08:16.722Z,1005.07
2023-09-23T05:09:16.662Z,1005.04
2023-09-23T05:10:16.669Z,1005.06
2023-09-23T05:11:16.666Z,1005.13
2023-09-23T05:12:16.662Z,1005.17
2023-09-23T05:13:16.660Z,1005.18
2023-09-23T05:14:16.676Z,1005.21
2023-09-23T05:15:17.089Z,1005.18
2023-09-23T05:16:16.686Z,1005.20
2023-09-23T05:17:16.724Z,1005.17
2023-09-23T05:18:16.667Z,1005.20
2023-09-23T05:19:16.682Z,1005.19
2023-09-23T05:20:16.739Z,1005.22
2023-09-23T05:21:16.653Z,1005.19
2023-09-23T05:22:16.660Z,1005.22
2023-09-23T05:23:16.696Z,1005.20
2023-09-23T05:24:16.655Z,1005.21
2023-09-23T05:25:16.649Z,1005.28
2023-09-23T05:26:16.694Z,1005.32
2023-09-23T05:27:16.660Z,1005.31
2023-09-23T05:28:16.652Z,1005.38
2023-09-23T05:29:16.647Z,1005.37
2023-09-23T05:30:16.647Z,1005.43
2023-09-23T05:31:16.685Z,1005.42
2023-09-23T05:32:16.688Z,1005.47
2023-09-23T05:33:16.672Z,1005.48
2023-09-23T05:34:16.652Z,1005.48
2023-09-23T05:35:16.724Z,1005.53
2023-09-23T05:36:16.651Z,1005.54
2023-09-23T05:37:16.641Z,1005.61
2023-09-23T05:38:16.666Z,1005.60
2023-09-23T05:39:16.637Z,1005.62
2023-09-23T05:40:16.642Z,1005.61
2023-09-23T05:41:16.677Z,1005.65
2023-09-23T05:42:16.645Z,1005.64
2023-09-23T05:43:16.641Z,1005.68
2023-09-23T05:44:16.665Z,1005.70
2023-09-23T05:45:16.713Z,1005.72
2023-09-23T05:46:16.667Z,1005.76
2023-09-23T05:47:16.716Z,1005.78
2023-09-23T05:48:16.658Z,1005.81
2023-09-23T05:49:16.653Z,1005.79
2023-09-23T05:50:16.747Z,1005.83
2023-09-23T05:51:16.635Z,1005.82
2023-09-23T05:52:16.638Z,1005.89
2023-09-23T05:53:16.655Z,1005.87
2023-09-23T05:54:16.629Z,1005.90
2023-09-23T05:55:16.628Z,1005.88
2023-09-23T05:56:16.653Z,1005.91
2023-09-23T05:57:16.627Z,1005.90
2023-09-23T05:58:16.656Z,1005.90
2023-09-23T05:59:16.676Z,1005.94
2023-09-23T06:00:16.796Z,1005.91
2023-09-23T06:01:16.709Z,1005.92
2023-09-23T06:02:16.633Z,1005.92
2023-09-23T06:03:16.707Z,1005.91
2023-09-23T06:04:16.629Z,1005.93
2023-09-23T06:05:16.711Z,1005.92
2023-09-23T06:06:16.620Z,1005.90
2023-09-23T06:07:16.619Z,1005.87
2023-09-23T06:08:16.699Z,1005.93
2023-09-23T06:09:16.615Z,1005.89
2023-09-23T06:10:16.654Z,1006.01
2023-09-23T06:11:16.641Z,1006.03
2023-09-23T06:12:16.619Z,1006.05
2023-09-23T06:13:16.612Z,1006.08
2023-09-23T06:14:16.641Z,1006.10
2023-09-23T06:15:16.632Z,1006.07
2023-09-23T06:16:16.655Z,1006.14
2023-09-23T06:17:16.665Z,1006.09
2023-09-23T06:18:16.708Z,1006.04
2023-09-23T06:19:16.611Z,1006.00
2023-09-23T06:20:16.659Z,1006.02
2023-09-23T06:21:16.635Z,1006.05
2023-09-23T06:22:16.610Z,1006.02
2023-09-23T06:23:16.668Z,1006.09
2023-09-23T06:24:16.612Z,1006.10
2023-09-23T06:25:16.621Z,1006.12
2023-09-23T06:26:16.708Z,1006.19
2023-09-23T06:27:16.605Z,1006.16
2023-09-23T06:28:16.607Z,1006.23
2023-09-23T06:29:16.683Z,1006.19
2023-09-23T06:30:16.664Z,1006.22
2023-09-23T06:31:16.677Z,1006.27
2023-09-23T06:32:16.666Z,1006.25
2023-09-23T06:33:16.698Z,1006.24
2023-09-23T06:34:16.605Z,1006.25
2023-09-23T06:35:16.692Z,1006.22
2023-09-23T06:36:16.600Z,1006.22
2023-09-23T06:37:16.621Z,1006.22
2023-09-23T06:38:16.634Z,1006.27
2023-09-23T06:39:16.595Z,1006.33
2023-09-23T06:40:16.604Z,1006.34
2023-09-23T06:41:16.639Z,1006.38
2023-09-23T06:42:16.599Z,1006.40
2023-09-23T06:43:16.593Z,1006.39
2023-09-23T06:44:16.660Z,1006.37
2023-09-23T06:45:16.609Z,1006.46
2023-09-23T06:46:16.630Z,1006.40
2023-09-23T06:47:16.645Z,1006.35
2023-09-23T06:48:16.642Z,1006.48
2023-09-23T06:49:16.592Z,1006.49
2023-09-23T06:50:16.627Z,1006.47
2023-09-23T06:51:16.586Z,1006.54
2023-09-23T06:52:16.593Z,1006.58
2023-09-23T06:53:16.644Z,1006.61
2023-09-23T06:54:16.587Z,1006.62
2023-09-23T06:55:16.588Z,1006.63
2023-09-23T06:56:16.605Z,1006.70
2023-09-23T06:57:16.590Z,1006.67
2023-09-23T06:58:16.587Z,1006.66
2023-09-23T06:59:16.624Z,1006.67
2023-09-23T07:00:16.598Z,1006.78
2023-09-23T07:01:16.645Z,1006.77
2023-09-23T07:02:16.692Z,1006.75
2023-09-23T07:03:16.739Z,1006.85
2023-09-23T07:04:16.722Z,1006.81
2023-09-23T07:05:16.720Z,1006.89
2023-09-23T07:06:16.581Z,1006.91
2023-09-23T07:07:16.584Z,1006.91
2023-09-23T07:08:16.709Z,1006.95
2023-09-23T07:09:16.600Z,1006.95
2023-09-23T07:10:16.580Z,1006.96
2023-09-23T07:11:16.634Z,1007.17
2023-09-23T07:12:16.607Z,1007.30
2023-09-23T07:13:16.576Z,1007.32
2023-09-23T07:14:16.625Z,1007.37
2023-09-23T07:15:16.587Z,1007.37
2023-09-23T07:16:16.611Z,1007.40
2023-09-23T07:17:16.641Z,1007.35
2023-09-23T07:18:16.630Z,1007.41
2023-09-23T07:19:16.573Z,1007.43
2023-09-23T07:20:16.617Z,1007.40
2023-09-23T07:21:16.575Z,1007.41
2023-09-23T07:22:16.575Z,1007.43
2023-09-23T07:23:16.625Z,1007.36
2023-09-23T07:24:16.578Z,1007.24
2023-09-23T07:25:16.594Z,1007.17
2023-09-23T07:26:16.662Z,1007.14
2023-09-23T07:27:16.572Z,1007.11
2023-09-23T07:28:16.572Z,1007.05
2023-09-23T07:29:16.595Z,1007.22
2023-09-23T07:30:18.555Z,1007.16
2023-09-23T07:31:16.617Z,1007.21
2023-09-23T07:32:16.613Z,1007.32
2023-09-23T07:33:16.613Z,1007.28
2023-09-23T07:34:16.605Z,1007.32
2023-09-23T07:35:16.670Z,1007.30
2023-09-23T07:36:16.688Z,1007.30
2023-09-23T07:37:16.580Z,1007.34
2023-09-23T07:38:16.630Z,1007.33
2023-09-23T07:39:16.570Z,1007.35
2023-09-23T07:40:16.601Z,1007.46
2023-09-23T07:41:16.622Z,1007.36
2023-09-23T07:42:16.571Z,1007.37
2023-09-23T07:43:16.570Z,1007.43
2023-09-23T07:44:16.635Z,1007.49
2023-09-23T07:45:16.567Z,1007.53
2023-09-23T07:46:16.584Z,1007.56
2023-09-23T07:47:16.608Z,1007.58
2023-09-23T07:48:16.614Z,1007.67
2023-09-23T07:49:16.567Z,1007.70
2023-09-23T07:50:16.586Z,1007.80
2023-09-23T07:51:16.583Z,1007.59
2023-09-23T07:52:16.576Z,1008.07
2023-09-23T07:53:16.613Z,1007.40
2023-09-23T07:54:16.570Z,1007.51
2023-09-23T07:55:16.570Z,1007.71
2023-09-23T07:56:16.650Z,1008.66
2023-09-23T07:57:16.596Z,1007.82
2023-09-23T07:58:16.570Z,1007.94
2023-09-23T07:59:16.626Z,1008.67
2023-09-23T08:00:16.580Z,1007.64
2023-09-23T08:01:16.621Z,1008.78
2023-09-23T08:02:16.619Z,1007.71
2023-09-23T08:03:16.669Z,1007.81
2023-09-23T08:04:16.592Z,1007.79
2023-09-23T08:05:16.701Z,1007.68
2023-09-23T08:06:16.584Z,1008.09
2023-09-23T08:07:16.586Z,1008.63
2023-09-23T08:08:16.624Z,1008.43
2023-09-23T08:09:16.584Z,1007.68
2023-09-23T08:10:16.583Z,1008.51
2023-09-23T08:11:16.690Z,1007.66
2023-09-23T08:12:16.588Z,1007.65
2023-09-23T08:13:16.610Z,1007.69
2023-09-23T08:14:16.664Z,1007.71
2023-09-23T08:15:16.590Z,1008.19
2023-09-23T08:16:16.640Z,1007.84
2023-09-23T08:17:16.624Z,1007.73
2023-09-23T08:18:16.611Z,1007.74
2023-09-23T08:19:16.590Z,1007.88
2023-09-23T08:20:16.636Z,1007.81
2023-09-23T08:21:16.595Z,1007.79
2023-09-23T08:22:16.589Z,1007.83
2023-09-23T08:23:16.634Z,1007.79
2023-09-23T08:24:16.597Z,1007.86
2023-09-23T08:25:16.598Z,1007.85
2023-09-23T08:26:16.671Z,1007.87
2023-09-23T08:27:16.602Z,1007.86
2023-09-23T08:28:16.605Z,1007.92
2023-09-23T08:29:16.642Z,1007.94
2023-09-23T08:30:16.595Z,1007.95
2023-09-23T08:31:18.149Z,1008.01
2023-09-23T08:32:16.689Z,1008.05
2023-09-23T08:33:16.754Z,1008.10
2023-09-23T08:34:16.627Z,1007.99
2023-09-23T08:35:16.684Z,1008.03
2023-09-23T08:36:16.604Z,1008.02
2023-09-23T08:37:16.610Z,1008.09
2023-09-23T08:38:16.687Z,1008.22
2023-09-23T08:39:16.614Z,1008.22
2023-09-23T08:40:16.606Z,1008.20
2023-09-23T08:41:16.626Z,1008.26
2023-09-23T08:42:16.605Z,1008.27
2023-09-23T08:43:16.614Z,1008.33
2023-09-23T08:44:16.651Z,1008.45
2023-09-23T08:45:16.637Z,1008.39
2023-09-23T08:46:16.669Z,1008.45
2023-09-23T08:47:16.629Z,1008.47
2023-09-23T08:48:16.660Z,1008.45
2023-09-23T08:49:16.613Z,1008.47
2023-09-23T08:50:16.621Z,1008.39
2023-09-23T08:51:16.624Z,1008.39
2023-09-23T08:52:16.611Z,1008.48
2023-09-23T08:53:16.679Z,1008.65
2023-09-23T08:54:16.618Z,1008.69
2023-09-23T08:55:16.628Z,1008.49
2023-09-23T08:56:16.668Z,1008.56
2023-09-23T08:57:16.615Z,1008.55
2023-09-23T08:58:16.614Z,1008.63
2023-09-23T08:59:16.640Z,1008.61
2023-09-23T09:00:16.613Z,1008.65
2023-09-23T09:01:16.682Z,1008.68
2023-09-23T09:02:16.640Z,1008.58
2023-09-23T09:03:16.643Z,1008.64
2023-09-23T09:04:16.614Z,1008.71
2023-09-23T09:05:16.748Z,1008.72
2023-09-23T09:06:16.655Z,1008.73
2023-09-23T09:07:16.618Z,1008.68
2023-09-23T09:08:16.667Z,1008.64
2023-09-23T09:09:16.674Z,1008.70
2023-09-23T09:10:16.663Z,1008.73
2023-09-23T09:11:16.651Z,1008.73
2023-09-23T09:12:16.622Z,1008.75
2023-09-23T09:13:16.643Z,1010.00
2023-09-23T09:14:16.633Z,1009.10
2023-09-23T09:15:16.620Z,1009.06
2023-09-23T09:16:16.647Z,1008.99
2023-09-23T09:17:16.714Z,1008.96
2023-09-23T09:18:16.675Z,1008.86
2023-09-23T09:19:16.624Z,1008.92
2023-09-23T09:20:16.655Z,1008.93
2023-09-23T09:21:16.623Z,1008.92
2023-09-23T09:22:16.627Z,1008.87
2023-09-23T09:23:16.701Z,1008.83
2023-09-23T09:24:16.625Z,1008.85
2023-09-23T09:25:16.625Z,1008.96
2023-09-23T09:26:16.646Z,1009.05
2023-09-23T09:27:16.624Z,1009.95
2023-09-23T09:28:16.632Z,1010.01
2023-09-23T09:29:16.642Z,1009.95
2023-09-23T09:30:16.636Z,1010.18
2023-09-23T09:31:16.656Z,1009.89
2023-09-23T09:32:16.679Z,1009.22
2023-09-23T09:33:16.752Z,1009.99
2023-09-23T09:34:16.630Z,1010.09
2023-09-23T09:35:16.696Z,1009.09
2023-09-23T09:36:16.639Z,1008.98
2023-09-23T09:37:16.652Z,1008.95
2023-09-23T09:38:18.400Z,1008.91
2023-09-23T09:39:16.647Z,1008.89
2023-09-23T09:40:16.651Z,1008.95
2023-09-23T09:41:16.681Z,1009.32
2023-09-23T09:42:16.645Z,1009.08
2023-09-23T09:43:16.653Z,1009.05
2023-09-23T09:44:16.912Z,1009.75
2023-09-23T09:45:16.658Z,1009.01
2023-09-23T09:46:16.699Z,1009.05
2023-09-23T09:47:16.702Z,1009.00
2023-09-23T09:48:16.728Z,1009.03
2023-09-23T09:49:16.697Z,1010.39
2023-09-23T09:50:16.719Z,1009.29
2023-09-23T09:51:16.677Z,1010.59
2023-09-23T09:52:16.675Z,1009.18
2023-09-23T09:53:16.701Z,1010.75
2023-09-23T09:54:16.673Z,1009.74
2023-09-23T09:55:16.679Z,1009.72
2023-09-23T09:56:18.446Z,1009.09
2023-09-23T09:57:16.686Z,1009.03
2023-09-23T09:58:16.689Z,1009.03
2023-09-23T09:59:16.703Z,1009.05
2023-09-23T10:00:16.728Z,1009.00
2023-09-23T10:01:16.749Z,1009.03
2023-09-23T10:02:16.771Z,1009.08
2023-09-23T10:03:16.869Z,1009.05
2023-09-23T10:04:16.707Z,1009.85
2023-09-23T10:05:16.773Z,1010.16
2023-09-23T10:06:16.710Z,1009.14
2023-09-23T10:07:16.718Z,1011.15
2023-09-23T10:08:16.881Z,1010.12
2023-09-23T10:09:16.723Z,1008.99
2023-09-23T10:10:16.719Z,1009.02
2023-09-23T10:11:16.739Z,1009.01
2023-09-23T10:12:16.725Z,1009.01
2023-09-23T10:13:16.747Z,1008.99
2023-09-23T10:14:16.838Z,1009.01
2023-09-23T10:15:16.733Z,1008.96
2023-09-23T10:16:16.774Z,1008.97
2023-09-23T10:17:16.777Z,1008.96
2023-09-23T10:18:16.884Z,1008.99
2023-09-23T10:19:16.894Z,1008.97
2023-09-23T10:20:16.788Z,1009.00
2023-09-23T10:21:16.778Z,1009.06
2023-09-23T10:22:16.752Z,1009.09
2023-09-23T10:23:16.788Z,1009.11
2023-09-23T10:24:16.754Z,1009.06
2023-09-23T10:25:16.757Z,1009.11
2023-09-23T10:26:16.793Z,1009.11
2023-09-23T10:27:16.772Z,1009.12
2023-09-23T10:28:16.763Z,1009.14
2023-09-23T10:29:16.804Z,1009.11
2023-09-23T10:30:16.766Z,1009.10
2023-09-23T10:31:16.839Z,1009.07
2023-09-23T10:32:16.783Z,1009.12
2023-09-23T10:33:16.825Z,1009.09
2023-09-23T10:34:16.768Z,1009.11
2023-09-23T10:35:16.838Z,1009.15
2023-09-23T10:36:16.773Z,1009.15
2023-09-23T10:37:16.801Z,1009.17
2023-09-23T10:38:16.793Z,1009.14
2023-09-23T10:39:16.828Z,1009.20
2023-09-23T10:40:16.776Z,1009.95
2023-09-23T10:41:16.802Z,1009.37
2023-09-23T10:42:16.775Z,1010.68
2023-09-23T10:43:16.803Z,1009.96
2023-09-23T10:44:16.786Z,1012.65
2023-09-23T10:45:16.784Z,1012.75
2023-09-23T10:46:16.811Z,1012.47
2023-09-23T10:47:16.822Z,1009.64
2023-09-23T10:48:16.851Z,1011.02
2023-09-23T10:49:16.796Z,1012.67
2023-09-23T10:50:16.956Z,1011.96
2023-09-23T10:51:16.789Z,1012.79
2023-09-23T10:52:16.791Z,1009.70
2023-09-23T10:53:16.863Z,1012.80
2023-09-23T10:54:16.797Z,1010.22
2023-09-23T10:55:16.796Z,1009.92
2023-09-23T10:56:16.826Z,1011.51
2023-09-23T10:57:16.802Z,1009.87
2023-09-23T10:58:16.801Z,1009.41
2023-09-23T10:59:16.820Z,1009.27
2023-09-23T11:00:16.810Z,1009.46
2023-09-23T11:01:16.803Z,1009.49
2023-09-23T11:02:16.955Z,1010.00
2023-09-23T11:03:16.931Z,1009.83
2023-09-23T11:04:16.957Z,1009.83
2023-09-23T11:05:16.837Z,1009.83
2023-09-23T11:06:16.808Z,1009.91
2023-09-23T11:07:16.813Z,1009.89
2023-09-23T11:08:16.828Z,1009.91
2023-09-23T11:09:16.839Z,1009.22
2023-09-23T11:10:16.815Z,1010.00
2023-09-23T11:11:16.835Z,1009.24
2023-09-23T11:12:16.818Z,1009.21
2023-09-23T11:13:16.835Z,1009.26
2023-09-23T11:14:16.869Z,1009.25
2023-09-23T11:15:16.829Z,1009.90
2023-09-23T11:16:16.854Z,1009.21
2023-09-23T11:17:16.890Z,1009.21
2023-09-23T11:18:16.909Z,1009.32
2023-09-23T11:19:16.843Z,1009.26
2023-09-23T11:20:16.892Z,1009.46
2023-09-23T11:21:16.845Z,1010.02
2023-09-23T11:22:16.840Z,1010.00
2023-09-23T11:23:16.914Z,1009.95
2023-09-23T11:24:16.850Z,1009.87
2023-09-23T11:25:16.868Z,1009.95
2023-09-23T11:26:16.905Z,1009.87
2023-09-23T11:27:16.852Z,1009.78
2023-09-23T11:28:16.906Z,1009.71
2023-09-23T11:29:16.873Z,1009.74
2023-09-23T11:30:16.856Z,1009.71
2023-09-23T11:31:16.878Z,1009.37
2023-09-23T11:32:16.882Z,1009.47
2023-09-23T11:33:16.955Z,1009.81
2023-09-23T11:34:16.863Z,1009.86
2023-09-23T11:35:16.900Z,1009.57
2023-09-23T11:36:16.872Z,1009.41
2023-09-23T11:37:16.873Z,1009.41
2023-09-23T11:38:16.917Z,1009.34
2023-09-23T11:39:16.876Z,1009.45
2023-09-23T11:40:16.871Z,1009.44
2023-09-23T11:41:16.934Z,1009.80
2023-09-23T11:42:16.882Z,1009.70
2023-09-23T11:43:17.063Z,1009.68
2023-09-23T11:44:16.912Z,1009.67
2023-09-23T11:45:16.889Z,1009.65
2023-09-23T11:46:16.916Z,1009.64
2023-09-23T11:47:16.912Z,1009.58
2023-09-23T11:48:16.967Z,1009.59
2023-09-23T11:49:16.898Z,1009.52
2023-09-23T11:50:16.909Z,1009.63
2023-09-23T11:51:16.902Z,1009.65
2023-09-23T11:52:16.923Z,1009.41
2023-09-23T11:53:16.961Z,1009.61
2023-09-23T11:54:17.275Z,1009.53
2023-09-23T11:55:16.912Z,1009.51
2023-09-23T11:56:16.977Z,1009.54
2023-09-23T11:57:16.941Z,1009.60
2023-09-23T11:58:16.916Z,1009.79
2023-09-23T11:59:16.969Z,1009.93
2023-09-23T12:00:16.930Z,1009.95
2023-09-23T12:01:16.928Z,1009.93
2023-09-23T12:02:16.956Z,1009.42
2023-09-23T12:03:17.062Z,1010.04
2023-09-23T12:04:17.007Z,1010.12
2023-09-23T12:05:17.045Z,1010.08